createdAt,value
2023-02-19T00:01:35.853Z,98.56
2023-02-19T00:04:06.617Z,98.56
2023-02-19T00:06:34.393Z,98.57
2023-02-19T00:09:01.044Z,98.61
2023-02-19T00:11:30.656Z,98.46
2023-02-19T00:13:59.007Z,98.56
2023-02-19T00:16:28.104Z,98.49
2023-02-19T00:18:57.292Z,98.53
2023-02-19T00:21:24.677Z,98.57
2023-02-19T00:23:53.055Z,98.31
2023-02-19T00:26:20.611Z,98.43
2023-02-19T00:28:50.144Z,98.47
2023-02-19T00:31:17.595Z,98.49
2023-02-19T00:33:45.725Z,98.39
2023-02-19T00:36:14.071Z,98.15
2023-02-19T00:38:41.830Z,98.26
2023-02-19T00:41:18.548Z,98.03
2023-02-19T00:43:46.323Z,97.88
2023-02-19T00:46:15.413Z,97.85
2023-02-19T00:48:42.032Z,97.82
2023-02-19T00:51:08.921Z,97.98
2023-02-19T00:53:36.251Z,97.85
2023-02-19T00:56:03.811Z,97.91
2023-02-19T00:58:30.512Z,97.91
2023-02-19T01:00:57.658Z,98.02
2023-02-19T01:03:24.537Z,98.02
2023-02-19T01:05:52.233Z,97.91
2023-02-19T01:08:18.875Z,97.89
2023-02-19T01:10:45.784Z,97.90
2023-02-19T01:13:12.507Z,97.91
2023-02-19T01:15:39.180Z,97.87
2023-02-19T01:18:06.030Z,97.76
2023-02-19T01:20:33.559Z,97.79
2023-02-19T01:23:00.410Z,97.64
2023-02-19T01:25:27.121Z,97.64
2023-02-19T01:27:53.666Z,97.63
2023-02-19T01:30:20.261Z,97.52
2023-02-19T01:32:46.848Z,97.54
2023-02-19T01:35:13.546Z,97.52
2023-02-19T01:37:40.295Z,97.47
2023-02-19T01:40:07.956Z,97.26
2023-02-19T01:42:34.616Z,97.34
2023-02-19T01:45:23.213Z,97.28
2023-02-19T01:47:57.237Z,97.35
2023-02-19T01:50:27.747Z,97.41
2023-02-19T01:52:54.992Z,97.31
2023-02-19T01:55:21.943Z,97.39
2023-02-19T01:57:53.357Z,97.49
2023-02-19T02:00:20.071Z,97.55
2023-02-19T02:02:50.817Z,97.59
2023-02-19T02:05:46.598Z,97.71
2023-02-19T02:08:33.142Z,97.83
2023-02-19T02:10:59.981Z,98.03
2023-02-19T02:13:27.546Z,98.01
2023-02-19T02:16:20.619Z,97.90
2023-02-19T02:19:01.041Z,97.97
2023-02-19T02:22:00.966Z,98.03
2023-02-19T02:24:46.920Z,98.13
2023-02-19T02:27:26.820Z,98.06
2023-02-19T02:30:16.310Z,98.08
2023-02-19T02:32:53.873Z,98.10
2023-02-19T02:35:29.891Z,98.02
2023-02-19T02:38:03.544Z,98.06
2023-02-19T02:40:31.227Z,98.18
2023-02-19T02:42:59.812Z,97.95
2023-02-19T02:45:34.934Z,98.24
2023-02-19T02:48:17.549Z,98.00
2023-02-19T02:50:59.529Z,98.12
2023-02-19T02:54:09.314Z,98.36
2023-02-19T02:56:37.014Z,98.11
2023-02-19T02:59:08.100Z,98.05
2023-02-19T03:01:55.923Z,97.96
2023-02-19T03:04:37.309Z,98.04
2023-02-19T03:07:08.900Z,98.08
2023-02-19T03:09:42.463Z,98.12
2023-02-19T03:12:32.925Z,98.30
2023-02-19T03:15:23.195Z,98.11
2023-02-19T03:18:18.892Z,98.31
2023-02-19T03:20:50.092Z,98.15
2023-02-19T03:23:19.383Z,98.31
2023-02-19T03:26:05.337Z,98.10
2023-02-19T03:28:58.902Z,98.26
2023-02-19T03:31:29.524Z,98.14
2023-02-19T03:34:02.857Z,98.16
2023-02-19T03:36:51.925Z,98.13
2023-02-19T03:39:21.912Z,98.24
2023-02-19T03:41:55.028Z,98.19
2023-02-19T03:44:32.226Z,98.43
2023-02-19T03:47:03.034Z,98.26
2023-02-19T03:49:36.464Z,98.24
2023-02-19T03:52:16.528Z,98.46
2023-02-19T03:54:56.614Z,98.38
2023-02-19T03:57:49.689Z,98.36
2023-02-19T04:00:22.576Z,98.53
2023-02-19T04:03:09.552Z,98.46
2023-02-19T04:05:42.388Z,98.57
2023-02-19T04:08:15.288Z,98.68
2023-02-19T04:10:48.802Z,98.54
2023-02-19T04:13:27.270Z,98.73
2023-02-19T04:16:00.327Z,98.68
2023-02-19T04:18:32.194Z,98.77
2023-02-19T04:20:59.808Z,98.73
2023-02-19T04:23:30.109Z,98.65
2023-02-19T04:26:00.708Z,98.75
2023-02-19T04:28:28.469Z,98.90
2023-02-19T04:30:55.048Z,98.70
2023-02-19T04:33:21.689Z,98.85
2023-02-19T04:35:48.214Z,98.88
2023-02-19T04:38:15.010Z,98.87
2023-02-19T04:40:41.742Z,98.90
2023-02-19T04:43:08.347Z,99.05
2023-02-19T04:45:37.285Z,99.00
2023-02-19T04:48:04.580Z,98.98
2023-02-19T04:50:31.385Z,99.03
2023-02-19T04:52:58.048Z,99.06
2023-02-19T04:55:24.711Z,99.06
2023-02-19T04:57:51.250Z,99.08
2023-02-19T05:00:17.884Z,99.00
2023-02-19T05:02:44.436Z,99.08
2023-02-19T05:05:11.055Z,99.06
2023-02-19T05:07:37.613Z,99.12
2023-02-19T05:10:04.569Z,99.10
2023-02-19T05:12:31.395Z,99.19
2023-02-19T05:14:57.957Z,99.23
2023-02-19T05:17:24.655Z,99.22
2023-02-19T05:19:51.294Z,99.31
2023-02-19T05:22:18.225Z,99.42
2023-02-19T05:24:45.438Z,99.25
2023-02-19T05:27:11.984Z,99.41
2023-02-19T05:29:38.560Z,99.43
2023-02-19T05:32:05.289Z,99.41
2023-02-19T05:34:32.022Z,99.44
2023-02-19T05:36:58.820Z,99.26
2023-02-19T05:39:25.364Z,99.32
2023-02-19T05:41:52.042Z,99.33
2023-02-19T05:44:18.636Z,99.40
2023-02-19T05:46:45.270Z,99.54
2023-02-19T05:49:12.075Z,99.33
2023-02-19T05:51:38.642Z,99.35
2023-02-19T05:54:05.525Z,99.32
2023-02-19T05:56:40.604Z,99.26
2023-02-19T05:59:19.548Z,99.51
2023-02-19T06:01:47.251Z,99.27
2023-02-19T06:04:15.183Z,99.45
2023-02-19T06:06:42.356Z,99.58
2023-02-19T06:09:10.053Z,99.55
2023-02-19T06:11:37.550Z,99.42
2023-02-19T06:14:05.798Z,99.45
2023-02-19T06:16:33.796Z,99.55
2023-02-19T06:19:03.995Z,99.54
2023-02-19T06:21:31.077Z,99.71
2023-02-19T06:23:57.645Z,99.62
2023-02-19T06:26:25.392Z,99.76
2023-02-19T06:28:53.073Z,99.79
2023-02-19T06:31:21.358Z,99.82
2023-02-19T06:33:50.000Z,99.78
2023-02-19T06:36:18.675Z,99.75
2023-02-19T06:38:45.384Z,99.97
2023-02-19T06:41:12.953Z,99.98
2023-02-19T06:43:40.321Z,99.94
2023-02-19T06:46:08.070Z,99.97
2023-02-19T06:48:35.040Z,99.93
2023-02-19T06:51:02.185Z,99.98
2023-02-19T06:53:29.049Z,99.96
2023-02-19T06:56:07.883Z,99.92
2023-02-19T06:58:34.926Z,99.99
2023-02-19T07:01:01.574Z,99.99
2023-02-19T07:03:28.394Z,100.00
2023-02-19T07:05:55.043Z,100.00
2023-02-19T07:08:21.733Z,100.00
2023-02-19T07:10:56.861Z,99.99
2023-02-19T07:13:26.072Z,99.97
2023-02-19T07:15:59.573Z,99.80
2023-02-19T07:18:26.242Z,99.91
2023-02-19T07:20:53.553Z,99.80
2023-02-19T07:23:20.395Z,99.85
2023-02-19T07:25:47.137Z,99.82
2023-02-19T07:28:13.873Z,99.80
2023-02-19T07:30:40.882Z,99.97
2023-02-19T07:33:10.390Z,99.91
2023-02-19T07:35:37.128Z,99.98
2023-02-19T07:38:03.807Z,99.90
2023-02-19T07:40:30.328Z,99.97
2023-02-19T07:42:59.758Z,99.94
2023-02-19T07:45:26.586Z,100.00
2023-02-19T07:47:53.385Z,99.98
2023-02-19T07:50:19.964Z,99.97
2023-02-19T07:52:46.791Z,100.00
2023-02-19T07:55:13.630Z,100.00
2023-02-19T07:57:41.060Z,99.99
2023-02-19T08:00:08.257Z,99.99
2023-02-19T08:02:57.840Z,100.00
2023-02-19T08:05:24.676Z,100.00
2023-02-19T08:07:51.302Z,99.99
2023-02-19T08:10:36.775Z,100.00
2023-02-19T08:13:18.777Z,100.00
2023-02-19T08:15:46.557Z,100.00
2023-02-19T08:18:14.452Z,100.00
2023-02-19T08:20:41.563Z,100.00
2023-02-19T08:23:08.983Z,100.00
2023-02-19T08:25:36.348Z,100.00
2023-02-19T08:28:04.091Z,100.00
2023-02-19T08:30:32.678Z,100.00
2023-02-19T08:33:02.275Z,100.00
2023-02-19T08:35:29.201Z,100.00
2023-02-19T08:37:57.364Z,100.00
2023-02-19T08:40:26.905Z,100.00
2023-02-19T08:42:54.610Z,100.00
2023-02-19T08:45:23.574Z,100.00
2023-02-19T08:47:50.234Z,100.00
2023-02-19T08:50:16.858Z,100.00
2023-02-19T08:52:43.495Z,100.00
2023-02-19T08:55:10.046Z,100.00
2023-02-19T08:57:37.096Z,99.99
2023-02-19T09:00:08.693Z,100.00
2023-02-19T09:02:37.230Z,99.97
2023-02-19T09:05:05.095Z,99.96
2023-02-19T09:07:32.258Z,99.83
2023-02-19T09:10:00.205Z,99.81
2023-02-19T09:12:26.912Z,99.68
2023-02-19T09:14:54.929Z,99.68
2023-02-19T09:17:22.137Z,99.68
2023-02-19T09:19:50.804Z,99.70
2023-02-19T09:22:17.530Z,99.69
2023-02-19T09:24:44.716Z,99.64
2023-02-19T09:27:19.448Z,99.70
2023-02-19T09:29:46.793Z,99.71
2023-02-19T09:32:14.020Z,99.62
2023-02-19T09:34:41.195Z,99.71
2023-02-19T09:37:08.136Z,99.37
2023-02-19T09:39:34.959Z,99.45
2023-02-19T09:42:14.869Z,99.27
2023-02-19T09:44:45.583Z,99.36
2023-02-19T09:47:25.266Z,99.37
2023-02-19T09:49:55.569Z,99.17
2023-02-19T09:52:24.949Z,99.20
2023-02-19T09:54:58.630Z,98.96
2023-02-19T09:57:29.304Z,98.99
2023-02-19T10:00:13.641Z,98.95
2023-02-19T10:02:40.234Z,98.81
2023-02-19T10:05:13.649Z,99.02
2023-02-19T10:07:47.278Z,98.92
2023-02-19T10:10:13.842Z,98.88
2023-02-19T10:12:46.682Z,98.88
2023-02-19T10:15:29.094Z,98.86
2023-02-19T10:17:56.043Z,98.69
2023-02-19T10:20:26.080Z,98.95
2023-02-19T10:23:03.302Z,98.82
2023-02-19T10:25:31.339Z,98.90
2023-02-19T10:27:59.308Z,98.68
2023-02-19T10:30:30.946Z,98.58
2023-02-19T10:33:18.769Z,98.57
2023-02-19T10:36:01.699Z,97.74
2023-02-19T10:38:38.508Z,97.43
2023-02-19T10:41:17.266Z,97.60
2023-02-19T10:43:55.461Z,97.38
2023-02-19T10:46:28.897Z,97.00
2023-02-19T10:48:58.917Z,97.06
2023-02-19T10:54:04.981Z,96.91
2023-02-19T10:56:33.122Z,97.01
2023-02-19T10:59:26.040Z,96.94
2023-02-19T11:01:59.924Z,96.73
2023-02-19T11:04:33.281Z,96.68
2023-02-19T11:07:10.967Z,96.68
2023-02-19T11:09:39.946Z,96.72
2023-02-19T11:12:08.503Z,96.34
2023-02-19T11:14:36.630Z,96.82
2023-02-19T11:17:05.041Z,96.61
2023-02-19T11:19:39.474Z,96.60
2023-02-19T11:22:41.377Z,96.17
2023-02-19T11:25:14.106Z,96.37
2023-02-19T11:28:06.624Z,96.35
2023-02-19T11:30:35.882Z,96.28
2023-02-19T11:33:24.026Z,96.21
2023-02-19T11:35:57.076Z,96.48
2023-02-19T11:38:23.628Z,96.18
2023-02-19T11:40:56.358Z,96.26
2023-02-19T11:43:25.958Z,96.45
2023-02-19T11:46:22.090Z,96.48
2023-02-19T11:48:57.812Z,96.70
2023-02-19T11:51:33.730Z,96.12
2023-02-19T11:54:07.116Z,96.15
2023-02-19T11:56:36.522Z,96.08
2023-02-19T11:59:09.190Z,96.22
2023-02-19T12:01:50.810Z,96.01
2023-02-19T12:04:39.224Z,95.63
2023-02-19T12:07:32.326Z,95.52
2023-02-19T12:10:01.762Z,95.81
2023-02-19T12:12:50.834Z,95.65
2023-02-19T12:15:39.132Z,95.91
2023-02-19T12:18:25.669Z,95.24
2023-02-19T12:21:11.881Z,95.47
2023-02-19T12:24:28.818Z,95.40
2023-02-19T12:27:24.269Z,95.12
2023-02-19T12:29:56.418Z,95.40
2023-02-19T12:32:29.343Z,95.40
2023-02-19T12:35:24.714Z,95.34
2023-02-19T12:38:02.075Z,95.46
2023-02-19T12:41:04.402Z,95.42
2023-02-19T12:43:33.605Z,95.05
2023-02-19T12:46:06.340Z,95.25
2023-02-19T12:48:39.014Z,95.22
2023-02-19T12:51:15.643Z,95.45
2023-02-19T12:53:52.048Z,95.43
2023-02-19T12:56:24.609Z,95.35
2023-02-19T12:59:19.958Z,95.04
2023-02-19T13:02:00.013Z,94.87
2023-02-19T13:04:42.734Z,94.94
2023-02-19T13:07:12.128Z,94.97
2023-02-19T13:10:10.951Z,95.06
2023-02-19T13:12:42.466Z,95.16
2023-02-19T13:15:34.206Z,95.09
2023-02-19T13:18:04.729Z,95.00
2023-02-19T13:20:38.642Z,95.17
2023-02-19T13:23:48.592Z,95.11
2023-02-19T13:26:36.435Z,95.34
2023-02-19T13:29:35.158Z,95.40
2023-02-19T13:32:23.471Z,95.08
2023-02-19T13:35:11.430Z,95.08
2023-02-19T13:37:39.148Z,95.17
2023-02-19T13:40:18.288Z,95.09
2023-02-19T13:42:53.336Z,95.24
2023-02-19T13:45:40.856Z,95.05
2023-02-19T13:48:28.448Z,94.96
2023-02-19T13:51:33.786Z,95.22
2023-02-19T13:54:12.513Z,94.77
2023-02-19T13:56:40.479Z,94.69
2023-02-19T13:59:10.245Z,94.49
2023-02-19T14:01:52.163Z,94.54
2023-02-19T14:04:20.589Z,94.85
2023-02-19T14:07:02.368Z,94.84
2023-02-19T14:09:43.192Z,95.02
2023-02-19T14:12:09.744Z,94.78
2023-02-19T14:14:49.680Z,94.80
2023-02-19T14:17:32.902Z,94.68
2023-02-19T14:19:59.598Z,94.61
2023-02-19T14:22:44.729Z,94.44
2023-02-19T14:25:26.480Z,94.51
2023-02-19T14:28:11.593Z,94.54
2023-02-19T14:30:55.157Z,94.35
2023-02-19T14:33:25.075Z,94.13
2023-02-19T14:36:02.885Z,94.28
2023-02-19T14:38:35.979Z,94.42
2023-02-19T14:41:04.283Z,94.21
2023-02-19T14:43:33.227Z,94.05
2023-02-19T14:46:08.445Z,93.97
2023-02-19T14:48:39.108Z,93.68
2023-02-19T14:51:31.955Z,93.78
2023-02-19T14:54:04.976Z,93.63
2023-02-19T14:56:34.367Z,93.69
2023-02-19T14:59:12.873Z,93.85
2023-02-19T15:01:39.805Z,94.01
2023-02-19T15:04:21.585Z,93.89
2023-02-19T15:06:49.003Z,93.85
2023-02-19T15:09:16.213Z,93.72
2023-02-19T15:11:43.331Z,93.83
2023-02-19T15:14:22.266Z,94.04
2023-02-19T15:16:57.604Z,93.96
2023-02-19T15:19:24.448Z,93.75
2023-02-19T15:21:51.664Z,93.69
2023-02-19T15:24:18.855Z,93.38
2023-02-19T15:26:53.654Z,93.23
2023-02-19T15:29:24.155Z,93.01
2023-02-19T15:31:59.339Z,92.99
2023-02-19T15:34:28.262Z,92.97
2023-02-19T15:37:00.415Z,93.19
2023-02-19T15:39:36.237Z,93.15
2023-02-19T15:42:05.312Z,92.91
2023-02-19T15:44:41.755Z,93.03
2023-02-19T15:47:23.931Z,93.17
2023-02-19T15:49:57.707Z,92.96
2023-02-19T15:52:31.108Z,92.86
2023-02-19T15:55:35.293Z,92.75
2023-02-19T15:58:18.285Z,92.52
2023-02-19T16:00:53.485Z,92.29
2023-02-19T16:03:23.479Z,92.49
2023-02-19T16:06:10.798Z,92.31
2023-02-19T16:09:03.080Z,92.28
2023-02-19T16:11:36.326Z,92.22
2023-02-19T16:14:28.567Z,92.10
2023-02-19T16:16:59.861Z,92.04
2023-02-19T16:19:42.888Z,91.71
2023-02-19T16:22:21.343Z,91.60
2023-02-19T16:24:57.227Z,91.64
2023-02-19T16:27:39.796Z,91.34
2023-02-19T16:30:27.859Z,91.51
2023-02-19T16:33:37.396Z,91.27
2023-02-19T16:36:19.131Z,91.10
2023-02-19T16:39:07.644Z,91.11
2023-02-19T16:42:10.160Z,90.85
2023-02-19T16:44:36.923Z,90.67
2023-02-19T16:47:14.754Z,90.56
2023-02-19T16:49:42.147Z,90.63
2023-02-19T16:52:13.987Z,90.64
2023-02-19T16:54:40.898Z,90.44
2023-02-19T16:57:07.527Z,90.48
2023-02-19T16:59:34.183Z,90.18
2023-02-19T17:02:04.345Z,90.04
2023-02-19T17:04:31.220Z,89.98
2023-02-19T17:06:57.923Z,89.90
2023-02-19T17:09:24.594Z,89.88
2023-02-19T17:11:51.340Z,89.95
2023-02-19T17:14:18.701Z,89.94
2023-02-19T17:16:47.378Z,89.92
2023-02-19T17:19:23.630Z,89.32
2023-02-19T17:21:50.386Z,89.27
2023-02-19T17:24:17.087Z,89.25
2023-02-19T17:26:43.668Z,89.28
2023-02-19T17:29:13.347Z,89.10
2023-02-19T17:31:40.482Z,89.00
2023-02-19T17:34:07.649Z,88.49
2023-02-19T17:36:34.389Z,88.66
2023-02-19T17:39:02.454Z,88.64
2023-02-19T17:41:29.323Z,88.56
2023-02-19T17:43:56.141Z,88.44
2023-02-19T17:46:25.659Z,88.29
2023-02-19T17:48:53.326Z,88.22
2023-02-19T17:51:20.672Z,88.01
2023-02-19T17:53:47.528Z,88.38
2023-02-19T17:56:25.041Z,88.27
2023-02-19T17:58:52.089Z,88.26
2023-02-19T18:01:19.077Z,88.29
2023-02-19T18:03:46.011Z,87.99
2023-02-19T18:06:13.168Z,88.27
2023-02-19T18:08:46.344Z,88.34
2023-02-19T18:11:13.370Z,88.46
2023-02-19T18:13:40.192Z,88.45
2023-02-19T18:16:10.109Z,88.34
2023-02-19T18:18:39.836Z,88.42
2023-02-19T18:21:11.543Z,88.40
2023-02-19T18:23:38.750Z,88.38
2023-02-19T18:26:09.859Z,88.62
2023-02-19T18:28:38.036Z,88.44
2023-02-19T18:31:06.870Z,88.58
2023-02-19T18:33:34.595Z,88.40
2023-02-19T18:36:01.372Z,88.33
2023-02-19T18:38:27.957Z,88.69
2023-02-19T18:40:55.401Z,88.19
2023-02-19T18:43:23.080Z,88.34
2023-02-19T18:45:49.839Z,88.13
2023-02-19T18:48:16.513Z,88.25
2023-02-19T18:50:43.454Z,88.10
2023-02-19T18:53:11.040Z,88.02
2023-02-19T18:55:37.806Z,88.12
2023-02-19T18:58:04.392Z,88.14
2023-02-19T19:00:31.241Z,88.10
2023-02-19T19:02:59.042Z,88.14
2023-02-19T19:05:26.176Z,88.16
2023-02-19T19:07:54.776Z,88.03
2023-02-19T19:10:22.829Z,88.57
2023-02-19T19:12:49.527Z,88.68
2023-02-19T19:15:18.478Z,88.44
2023-02-19T19:17:46.952Z,88.53
2023-02-19T19:20:16.843Z,88.43
2023-02-19T19:22:44.388Z,89.03
2023-02-19T19:25:11.217Z,88.75
2023-02-19T19:27:38.005Z,88.58
2023-02-19T19:30:05.966Z,88.86
2023-02-19T19:32:32.813Z,88.72
2023-02-19T19:34:59.540Z,89.04
2023-02-19T19:37:28.665Z,88.79
2023-02-19T19:39:55.985Z,88.91
2023-02-19T19:42:23.857Z,88.93
2023-02-19T19:44:50.668Z,89.08
2023-02-19T19:47:18.387Z,88.98
2023-02-19T19:49:47.613Z,88.97
2023-02-19T19:52:14.708Z,89.10
2023-02-19T19:54:42.583Z,89.11
2023-02-19T19:57:09.740Z,89.30
2023-02-19T19:59:38.522Z,89.01
2023-02-19T20:02:06.566Z,88.96
2023-02-19T20:04:33.424Z,89.08
2023-02-19T20:07:01.125Z,89.18
2023-02-19T20:09:28.559Z,88.94
2023-02-19T20:11:55.953Z,89.20
2023-02-19T20:14:24.445Z,88.76
2023-02-19T20:16:52.664Z,88.75
2023-02-19T20:19:20.312Z,88.67
2023-02-19T20:21:49.056Z,88.87
2023-02-19T20:24:18.151Z,89.26
2023-02-19T20:26:44.852Z,88.83
2023-02-19T20:29:11.668Z,88.83
2023-02-19T20:31:38.885Z,88.85
2023-02-19T20:34:05.710Z,89.20
2023-02-19T20:36:32.444Z,89.07
2023-02-19T20:38:59.276Z,89.16
2023-02-19T20:41:26.088Z,89.19
2023-02-19T20:43:53.411Z,89.38
2023-02-19T20:46:20.404Z,89.09
2023-02-19T20:48:47.076Z,89.49
2023-02-19T20:51:13.890Z,89.15
2023-02-19T20:53:41.277Z,89.02
2023-02-19T20:56:08.205Z,89.15
2023-02-19T20:58:35.555Z,89.04
2023-02-19T21:01:02.419Z,89.20
2023-02-19T21:03:30.096Z,88.88
2023-02-19T21:05:56.740Z,88.81
2023-02-19T21:08:23.352Z,89.01
2023-02-19T21:10:50.060Z,89.10
2023-02-19T21:13:16.890Z,89.09
2023-02-19T21:15:48.870Z,89.03
2023-02-19T21:18:16.966Z,88.87
2023-02-19T21:20:43.648Z,89.07
2023-02-19T21:23:14.796Z,89.20
2023-02-19T21:25:41.628Z,88.83
2023-02-19T21:28:09.707Z,88.97
2023-02-19T21:30:39.161Z,88.74
2023-02-19T21:33:05.764Z,89.15
2023-02-19T21:35:32.647Z,89.14
2023-02-19T21:37:59.248Z,89.11
2023-02-19T21:40:27.477Z,88.75
2023-02-19T21:42:54.226Z,88.71
2023-02-19T21:45:20.880Z,88.84
2023-02-19T21:47:47.475Z,89.49
2023-02-19T21:50:14.014Z,89.26
2023-02-19T21:52:41.382Z,88.99
2023-02-19T21:55:07.969Z,89.22
2023-02-19T21:57:34.562Z,89.19
2023-02-19T22:00:01.192Z,88.98
2023-02-19T22:02:27.762Z,89.13
2023-02-19T22:04:54.660Z,89.38
2023-02-19T22:07:21.714Z,89.37
2023-02-19T22:09:49.881Z,89.19
2023-02-19T22:12:17.679Z,88.98
2023-02-19T22:14:45.083Z,89.11
2023-02-19T22:17:12.279Z,89.38
2023-02-19T22:19:40.819Z,89.14
2023-02-19T22:22:07.654Z,89.22
2023-02-19T22:24:36.899Z,89.34
2023-02-19T22:27:04.105Z,89.05
2023-02-19T22:29:33.537Z,89.33
2023-02-19T22:32:00.297Z,89.44
2023-02-19T22:34:27.735Z,89.22
2023-02-19T22:36:54.369Z,89.07
2023-02-19T22:39:26.119Z,89.63
2023-02-19T22:41:53.495Z,89.09
2023-02-19T22:44:20.123Z,89.19
2023-02-19T22:46:55.556Z,89.36
2023-02-19T22:49:23.064Z,89.53
2023-02-19T22:54:12.049Z,89.53
2023-02-19T22:56:40.028Z,89.36
2023-02-19T22:59:07.989Z,89.23
2023-02-19T23:01:36.105Z,89.07
2023-02-19T23:04:04.275Z,89.50
2023-02-19T23:06:35.048Z,89.36
2023-02-19T23:09:11.053Z,89.38
2023-02-19T23:11:39.503Z,89.52
2023-02-19T23:14:07.963Z,89.10
2023-02-19T23:16:36.736Z,89.13
2023-02-19T23:19:06.563Z,89.33
2023-02-19T23:21:34.582Z,89.27
2023-02-19T23:24:02.633Z,89.05
2023-02-19T23:26:30.679Z,89.55
2023-02-19T23:28:58.621Z,89.00
2023-02-19T23:31:26.971Z,89.23
2023-02-19T23:33:55.392Z,89.37
2023-02-19T23:36:23.953Z,89.37
2023-02-19T23:38:52.081Z,89.53
2023-02-19T23:41:38.795Z,89.26
2023-02-19T23:44:06.692Z,89.32
2023-02-19T23:46:34.570Z,89.13
2023-02-19T23:49:02.640Z,88.97
2023-02-19T23:51:30.569Z,89.01
2023-02-19T23:53:58.582Z,89.08
2023-02-19T23:56:28.644Z,89.28
2023-02-19T23:58:56.856Z,89.11
